Time;durP1;ratioP1;P1;durP2;ratioP2;P2;SDS_P1;SDS_P2;PMS_P1;PMS_P2;Temp;Humidity;BMP_temperature;BMP_pressure;BME280_temperature;BME280_humidity;BME280_pressure;Samples;Min_cycle;Max_cycle;Signal;HPM_P1;HPM_P2
2023/01/08 00:01:52;;;;;;;46.60;40.30;;;;;;;4.59;76.37;100296.50;108209;1283;21927;-77
2023/01/08 00:04:21;;;;;;;48.60;41.40;;;;;;;4.55;76.34;100291.55;108335;1282;24419;-77
2023/01/08 00:06:50;;;;;;;46.10;41.10;;;;;;;4.52;76.45;100290.05;108192;1280;23089;-77
2023/01/08 00:09:19;;;;;;;50.80;42.10;;;;;;;4.49;76.41;100293.00;108208;1284;21931;-77
2023/01/08 00:11:49;;;;;;;54.00;45.40;;;;;;;4.50;76.55;100292.15;108246;1279;21933;-77
2023/01/08 00:14:18;;;;;;;52.30;44.60;;;;;;;4.51;76.57;100287.48;108188;1282;22178;-77
2023/01/08 00:16:50;;;;;;;48.60;43.20;;;;;;;4.49;76.47;100282.67;108181;1281;21931;-77
2023/01/08 00:19:24;;;;;;;51.20;44.20;;;;;;;4.44;76.38;100277.23;108541;1276;21907;-77
2023/01/08 00:21:53;;;;;;;53.10;44.90;;;;;;;4.41;76.43;100270.39;108506;1277;23008;-77
2023/01/08 00:24:23;;;;;;;46.70;41.70;;;;;;;4.38;76.46;100268.02;108464;1279;21939;-77
2023/01/08 00:26:52;;;;;;;53.10;45.80;;;;;;;4.33;76.46;100265.15;108518;1276;21920;-77
2023/01/08 00:29:22;;;;;;;58.40;48.30;;;;;;;4.29;76.45;100260.90;108487;1277;21945;-77
2023/01/08 00:31:51;;;;;;;51.80;44.30;;;;;;;4.26;76.59;100263.35;108486;1280;21909;-78
2023/01/08 00:34:20;;;;;;;56.10;48.70;;;;;;;4.24;76.59;100260.10;108524;1277;21975;-76
2023/01/08 00:36:49;;;;;;;59.00;49.90;;;;;;;4.22;76.64;100257.02;108532;1279;21931;-77
2023/01/08 00:39:19;;;;;;;60.10;53.40;;;;;;;4.20;76.65;100261.37;108298;1281;21940;-75
2023/01/08 00:41:48;;;;;;;67.60;59.00;;;;;;;4.17;76.66;100260.38;108511;1277;21911;-75
2023/01/08 00:44:17;;;;;;;115.30;88.10;;;;;;;4.14;76.70;100265.05;108448;1279;23770;-76
2023/01/08 00:46:47;;;;;;;60.10;52.10;;;;;;;4.12;76.75;100265.27;108535;1277;21931;-76
2023/01/08 00:49:16;;;;;;;56.30;46.50;;;;;;;4.09;76.80;100259.27;108497;1279;21915;-76
2023/01/08 00:51:45;;;;;;;54.10;47.30;;;;;;;4.05;76.79;100249.84;108466;1272;23686;-77
2023/01/08 00:54:14;;;;;;;50.80;45.50;;;;;;;4.01;76.86;100240.77;108561;1276;21942;-76
2023/01/08 00:56:43;;;;;;;56.00;50.00;;;;;;;4.00;76.83;100232.34;108581;1280;21933;-77
2023/01/08 00:59:12;;;;;;;57.40;48.70;;;;;;;3.93;76.79;100234.50;108531;1279;21931;-77
2023/01/08 01:01:42;;;;;;;65.00;53.00;;;;;;;3.90;76.92;100238.83;108459;1279;21934;-77
2023/01/08 01:04:13;;;;;;;59.10;47.60;;;;;;;3.88;76.94;100234.05;108603;1276;23066;-77
2023/01/08 01:06:43;;;;;;;50.70;45.20;;;;;;;3.87;77.06;100225.11;108413;1276;21948;-78
2023/01/08 01:09:12;;;;;;;52.90;45.20;;;;;;;3.86;77.10;100224.08;108625;1277;24400;-77
2023/01/08 01:11:41;;;;;;;52.40;46.50;;;;;;;3.85;77.21;100225.29;108584;1279;21940;-77
2023/01/08 01:14:10;;;;;;;53.00;47.30;;;;;;;3.84;77.33;100228.92;108598;1276;21963;-77
2023/01/08 01:16:41;;;;;;;54.60;46.90;;;;;;;3.82;77.33;100232.20;108362;1281;22022;-77
2023/01/08 01:19:10;;;;;;;52.90;47.10;;;;;;;3.80;77.33;100228.11;108548;1280;23676;-79
2023/01/08 01:21:40;;;;;;;58.90;49.80;;;;;;;3.79;77.29;100230.20;108574;1278;21922;-78
2023/01/08 01:24:12;;;;;;;56.00;46.80;;;;;;;3.78;77.34;100233.66;108297;1277;22383;-77
2023/01/08 01:26:41;;;;;;;52.30;46.40;;;;;;;3.76;77.43;100231.77;108539;1281;24380;-78
2023/01/08 01:29:10;;;;;;;51.10;45.40;;;;;;;3.72;77.32;100228.39;108552;1276;21950;-77
2023/01/08 01:31:39;;;;;;;52.00;46.30;;;;;;;3.69;77.38;100228.77;108600;1279;23014;-77
2023/01/08 01:34:09;;;;;;;51.40;45.70;;;;;;;3.66;77.44;100222.94;108170;1285;21948;-76
2023/01/08 01:36:38;;;;;;;52.70;46.60;;;;;;;3.64;77.44;100222.27;108116;1279;23105;-75
2023/01/08 01:39:09;;;;;;;54.10;48.00;;;;;;;3.65;77.39;100222.61;108011;1285;24357;-76
2023/01/08 01:41:44;;;;;;;53.70;47.80;;;;;;;3.64;77.52;100218.66;108045;1274;22047;-76
2023/01/08 01:44:43;;;;;;;59.40;50.20;;;;;;;3.61;77.48;100213.04;108207;1285;22375;-78
2023/01/08 01:47:41;;;;;;;52.90;47.10;;;;;;;3.55;77.56;100211.02;108265;1281;22992;-77
2023/01/08 01:50:20;;;;;;;54.10;48.00;;;;;;;3.49;77.64;100206.79;108296;1283;22217;-78
2023/01/08 01:53:11;;;;;;;52.50;46.90;;;;;;;3.46;77.67;100204.06;108396;1279;21942;-76
2023/01/08 01:55:42;;;;;;;58.80;49.30;;;;;;;3.44;77.64;100200.46;108502;1278;23596;-76
2023/01/08 01:58:27;;;;;;;56.50;48.30;;;;;;;3.45;77.61;100193.25;108595;1276;21926;-77
2023/01/08 02:01:02;;;;;;;58.60;49.70;;;;;;;3.45;77.72;100191.34;108674;1278;23603;-77
2023/01/08 02:03:36;;;;;;;57.20;48.20;;;;;;;3.44;77.72;100192.55;108623;1278;22209;-77
2023/01/08 02:06:27;;;;;;;56.70;46.80;;;;;;;3.43;77.82;100188.09;108555;1281;21949;-77
2023/01/08 02:09:45;;;;;;;53.30;47.60;;;;;;;3.41;77.95;100183.81;108504;1281;21932;-77
2023/01/08 02:12:41;;;;;;;56.20;47.40;;;;;;;3.41;78.06;100188.30;108511;1281;22237;-77
2023/01/08 02:15:16;;;;;;;59.70;53.20;;;;;;;3.42;78.16;100187.09;108551;1267;21992;-78
2023/01/08 02:18:04;;;;;;;53.10;47.40;;;;;;;3.45;78.19;100183.43;108594;1281;22594;-77
2023/01/08 02:20:45;;;;;;;55.80;49.90;;;;;;;3.45;78.12;100182.91;108610;1277;21952;-77
2023/01/08 02:23:48;;;;;;;54.90;47.70;;;;;;;3.46;78.15;100181.86;108595;1276;23061;-77
2023/01/08 02:26:29;;;;;;;53.40;46.40;;;;;;;3.46;78.08;100181.53;108587;1281;21949;-78
2023/01/08 02:29:06;;;;;;;61.00;50.00;;;;;;;3.45;78.06;100182.21;108643;1277;21923;-77
2023/01/08 02:31:39;;;;;;;57.70;51.30;;;;;;;3.44;78.10;100178.44;108586;1274;21948;-77
2023/01/08 02:34:10;;;;;;;56.50;50.40;;;;;;;3.44;78.02;100173.47;108633;1280;21947;-77
2023/01/08 02:36:45;;;;;;;57.30;51.30;;;;;;;3.44;78.06;100171.05;108553;1281;21928;-77
2023/01/08 02:39:42;;;;;;;55.00;49.00;;;;;;;3.42;77.97;100164.38;108595;1280;21928;-77
2023/01/08 02:42:31;;;;;;;63.40;52.60;;;;;;;3.37;77.90;100157.20;108598;1277;25046;-78
2023/01/08 02:45:03;;;;;;;50.10;44.80;;;;;;;3.34;77.93;100149.33;107557;1277;1500148;-78
2023/01/08 02:47:46;;;;;;;;;;;;;;;3.31;77.90;100146.44;108621;1280;23841;-77
2023/01/08 02:50:30;;;;;;;49.30;43.50;;;;;;;3.21;78.00;100142.76;108632;1279;21924;-78
2023/01/08 02:53:17;;;;;;;49.60;44.40;;;;;;;3.18;78.15;100140.04;108545;1280;23066;-77
2023/01/08 02:56:11;;;;;;;51.90;44.00;;;;;;;3.17;78.15;100141.77;108472;1280;22298;-77
2023/01/08 02:58:45;;;;;;;52.50;44.80;;;;;;;3.18;78.19;100142.45;108433;1276;22213;-76
2023/01/08 03:01:17;;;;;;;48.20;43.10;;;;;;;3.19;78.18;100139.17;108335;1283;22345;-79
2023/01/08 03:03:53;;;;;;;;;;;;;;;3.19;78.06;100139.51;108303;1283;23685;-78
2023/01/08 03:06:24;;;;;;;51.50;44.60;;;;;;;3.11;78.18;100142.17;108323;1284;21930;-77
2023/01/08 03:08:54;;;;;;;49.50;44.20;;;;;;;3.10;78.12;100145.80;108381;1283;21910;-77
2023/01/08 03:11:30;;;;;;;52.10;44.80;;;;;;;3.11;78.27;100153.69;108292;1284;23092;-78
2023/01/08 03:14:22;;;;;;;50.10;44.40;;;;;;;3.13;78.24;100152.98;108433;1284;21935;-77
2023/01/08 03:17:06;;;;;;;53.30;47.80;;;;;;;3.14;78.14;100153.67;108045;1285;23722;-76
2023/01/08 03:20:01;;;;;;;58.40;52.10;;;;;;;3.16;78.04;100152.95;108269;1285;23046;-77
2023/01/08 03:22:33;;;;;;;54.80;49.00;;;;;;;3.16;77.97;100148.14;108258;1282;21960;-77
2023/01/08 03:25:05;;;;;;;57.10;51.10;;;;;;;3.14;77.95;100146.61;107745;1289;21938;-76
2023/01/08 03:27:44;;;;;;;57.00;51.30;;;;;;;3.13;77.97;100142.33;107703;1287;21964;-76
2023/01/08 03:30:19;;;;;;;58.20;51.90;;;;;;;3.12;77.99;100141.30;107616;1284;21943;-76
2023/01/08 03:32:52;;;;;;;57.20;51.10;;;;;;;3.11;77.98;100138.39;107577;1292;21946;-78
2023/01/08 03:35:23;;;;;;;;;;;;;;;3.10;77.96;100142.36;107716;1292;23711;-78
2023/01/08 03:38:19;;;;;;;59.60;53.40;;;;;;;3.01;78.11;100141.95;107507;1290;23749;-76
2023/01/08 03:40:56;;;;;;;57.00;50.80;;;;;;;2.96;78.11;100136.49;107494;1291;22400;-77
2023/01/08 03:43:28;;;;;;;55.70;47.80;;;;;;;2.95;78.13;100132.56;107855;1288;23586;-76
2023/01/08 03:46:04;;;;;;;53.90;48.40;;;;;;;2.93;78.09;100125.17;108330;1283;21943;-78
2023/01/08 03:48:37;;;;;;;53.50;47.80;;;;;;;2.91;78.10;100123.83;108390;1284;21950;-77
2023/01/08 03:51:10;;;;;;;53.70;48.10;;;;;;;2.91;78.06;100121.58;108210;1285;23119;-77
2023/01/08 03:53:40;;;;;;;55.60;49.80;;;;;;;2.90;78.06;100123.65;108190;1283;22736;-77
2023/01/08 03:56:15;;;;;;;53.70;47.90;;;;;;;2.89;78.09;100123.49;108263;1278;21950;-77
2023/01/08 03:58:45;;;;;;;61.60;54.10;;;;;;;2.89;78.07;100123.66;108545;1280;22801;-76
2023/01/08 04:01:14;;;;;;;63.90;56.40;;;;;;;2.88;78.12;100128.31;108622;1279;23814;-78
2023/01/08 04:03:45;;;;;;;60.00;53.80;;;;;;;2.87;78.12;100132.45;108547;1279;23666;-78
2023/01/08 04:06:15;;;;;;;61.40;54.70;;;;;;;2.87;78.05;100129.19;108675;1278;21947;-78
2023/01/08 04:08:47;;;;;;;63.20;55.50;;;;;;;2.87;78.07;100126.77;108676;1277;21948;-78
2023/01/08 04:11:17;;;;;;;60.30;53.40;;;;;;;2.86;78.13;100122.15;108574;1278;23604;-79
2023/01/08 04:13:47;;;;;;;60.30;53.20;;;;;;;2.84;78.13;100125.09;108588;1275;21991;-78
2023/01/08 04:16:17;;;;;;;59.00;52.50;;;;;;;2.83;78.17;100120.80;108541;1276;23060;-79
2023/01/08 04:18:47;;;;;;;55.70;49.70;;;;;;;2.82;78.21;100118.91;108573;1279;22660;-77
2023/01/08 04:21:17;;;;;;;55.10;49.30;;;;;;;2.81;78.17;100112.91;108583;1275;21926;-77
2023/01/08 04:23:47;;;;;;;53.30;47.70;;;;;;;2.80;78.12;100114.98;108606;1279;21951;-78
2023/01/08 04:26:16;;;;;;;51.30;45.60;;;;;;;2.78;78.19;100113.64;108601;1276;21952;-78
2023/01/08 04:28:46;;;;;;;53.90;46.90;;;;;;;2.76;78.15;100110.90;108692;1278;21924;-78
2023/01/08 04:31:16;;;;;;;53.70;47.90;;;;;;;2.75;78.12;100114.69;108567;1273;21944;-77
2023/01/08 04:33:46;;;;;;;57.60;49.20;;;;;;;2.72;78.19;100116.79;108558;1277;21929;-77
2023/01/08 04:36:22;;;;;;;56.70;50.50;;;;;;;2.72;78.28;100113.01;108261;1285;21977;-78
2023/01/08 04:38:52;;;;;;;58.20;51.00;;;;;;;2.73;78.39;100105.43;108201;1281;21943;-76
2023/01/08 04:41:21;;;;;;;58.10;52.00;;;;;;;2.77;78.58;100091.48;108321;1282;23691;-77
2023/01/08 04:43:50;;;;;;;53.20;46.50;;;;;;;2.77;78.47;100075.50;108228;1283;23573;-78
2023/01/08 04:46:20;;;;;;;51.60;45.10;;;;;;;2.74;78.41;100061.95;108437;1280;22333;-78
2023/01/08 04:48:52;;;;;;;53.70;47.90;;;;;;;2.72;78.51;100061.96;108246;1280;23076;-77
2023/01/08 04:51:22;;;;;;;53.40;47.50;;;;;;;2.70;78.53;100068.68;108449;1282;21954;-77
2023/01/08 04:53:51;;;;;;;59.80;51.30;;;;;;;2.68;78.51;100068.19;108497;1279;22891;-77
2023/01/08 04:56:22;;;;;;;52.00;46.30;;;;;;;2.68;78.49;100064.77;108571;1277;21934;-77
2023/01/08 04:58:51;;;;;;;54.70;48.70;;;;;;;2.69;78.63;100059.25;108423;1277;21948;-78
2023/01/08 05:01:24;;;;;;;55.50;48.80;;;;;;;2.70;78.64;100051.52;108601;1276;21993;-77
2023/01/08 05:03:56;;;;;;;54.60;48.80;;;;;;;2.70;78.64;100039.13;108566;1279;21963;-78
2023/01/08 05:06:28;;;;;;;53.80;48.30;;;;;;;2.73;78.67;100039.10;108522;1275;21914;-77
2023/01/08 05:08:58;;;;;;;52.60;46.90;;;;;;;2.73;78.67;100039.45;108569;1278;21902;-78
2023/01/08 05:11:27;;;;;;;53.60;47.80;;;;;;;2.74;78.83;100040.64;108581;1276;21930;-77
2023/01/08 05:13:56;;;;;;;56.30;50.30;;;;;;;2.77;78.84;100042.50;108621;1277;22214;-78
2023/01/08 05:16:26;;;;;;;53.50;46.70;;;;;;;2.80;78.85;100044.17;108525;1277;22092;-77
2023/01/08 05:18:55;;;;;;;55.10;49.20;;;;;;;2.85;78.87;100047.58;108591;1276;24358;-77
2023/01/08 05:21:24;;;;;;;55.00;49.20;;;;;;;2.89;78.87;100051.98;108510;1276;21953;-77
2023/01/08 05:23:54;;;;;;;53.40;47.40;;;;;;;2.93;78.95;100046.80;108514;1279;22009;-77
2023/01/08 05:26:23;;;;;;;53.10;47.40;;;;;;;2.97;78.85;100039.70;108504;1276;22046;-78
2023/01/08 05:28:52;;;;;;;48.60;43.40;;;;;;;2.99;78.88;100037.77;108514;1276;22081;-78
2023/01/08 05:31:21;;;;;;;49.20;43.60;;;;;;;3.01;78.83;100037.77;108556;1279;21990;-78
2023/01/08 05:33:50;;;;;;;53.90;47.70;;;;;;;3.03;78.89;100042.02;108472;1278;21948;-77
2023/01/08 05:36:19;;;;;;;51.20;45.50;;;;;;;3.05;78.82;100040.98;108497;1280;22038;-78
2023/01/08 05:38:49;;;;;;;55.90;48.70;;;;;;;3.07;78.86;100043.20;108517;1277;21988;-76
2023/01/08 05:41:18;;;;;;;55.00;49.20;;;;;;;3.09;78.83;100043.85;108513;1277;21943;-78
2023/01/08 05:43:47;;;;;;;53.50;47.60;;;;;;;3.11;78.92;100039.20;108480;1279;21948;-76
2023/01/08 05:46:16;;;;;;;52.90;47.20;;;;;;;3.11;78.84;100039.00;108513;1273;23095;-77
2023/01/08 05:48:45;;;;;;;58.90;52.30;;;;;;;3.12;78.82;100044.16;108496;1276;21944;-77
2023/01/08 05:51:14;;;;;;;59.70;53.40;;;;;;;3.13;78.87;100040.02;108543;1277;21937;-77
2023/01/08 05:53:43;;;;;;;55.70;49.80;;;;;;;3.14;78.93;100026.94;108404;1277;22155;-76
2023/01/08 05:56:12;;;;;;;56.30;50.50;;;;;;;3.15;78.91;100022.96;108574;1277;21949;-77
2023/01/08 05:58:41;;;;;;;61.80;55.40;;;;;;;3.14;78.91;100026.59;108541;1275;21938;-77
2023/01/08 06:01:17;;;;;;;58.20;52.20;;;;;;;3.13;78.99;100014.40;108516;1277;21929;-76
2023/01/08 06:03:46;;;;;;;50.30;45.00;;;;;;;3.13;79.02;100019.38;108642;1275;21932;-76
2023/01/08 06:06:15;;;;;;;50.20;44.70;;;;;;;3.14;78.98;100017.48;108645;1275;21988;-76
2023/01/08 06:08:44;;;;;;;47.20;42.10;;;;;;;3.15;79.06;100013.17;108457;1277;22797;-76
2023/01/08 06:11:14;;;;;;;48.00;42.90;;;;;;;3.17;79.05;100007.83;108592;1274;23612;-76
2023/01/08 06:13:43;;;;;;;49.90;44.50;;;;;;;3.17;79.10;100012.80;108628;1277;24523;-76
2023/01/08 06:16:13;;;;;;;54.10;46.90;;;;;;;3.19;79.10;100009.51;108533;1268;21923;-77
2023/01/08 06:18:42;;;;;;;55.20;49.60;;;;;;;3.20;79.02;100001.77;108599;1277;23692;-75
2023/01/08 06:21:12;;;;;;;56.00;50.30;;;;;;;3.21;79.10;100007.42;108611;1267;21932;-76
2023/01/08 06:23:42;;;;;;;58.60;52.70;;;;;;;3.19;79.05;100005.73;108586;1276;23071;-76
2023/01/08 06:26:11;;;;;;;61.00;54.80;;;;;;;3.20;79.02;100009.67;108643;1276;21950;-77
2023/01/08 06:28:40;;;;;;;61.10;54.70;;;;;;;3.21;78.97;100014.64;108305;1277;23704;-76
2023/01/08 06:31:10;;;;;;;60.90;54.50;;;;;;;3.22;79.02;100018.41;108584;1275;22375;-76
2023/01/08 06:33:39;;;;;;;57.50;51.50;;;;;;;3.24;79.00;100020.12;108701;1267;21924;-77
2023/01/08 06:36:09;;;;;;;54.10;48.30;;;;;;;3.26;79.01;100019.58;108495;1277;21931;-76
2023/01/08 06:38:38;;;;;;;53.80;48.10;;;;;;;3.28;79.00;100018.17;108511;1275;21988;-76
2023/01/08 06:41:12;;;;;;;54.00;48.50;;;;;;;3.26;78.99;100012.85;108635;1276;21942;-75
2023/01/08 06:43:42;;;;;;;57.10;51.10;;;;;;;3.25;79.03;100010.98;108510;1275;22821;-77
2023/01/08 06:46:18;;;;;;;61.60;55.10;;;;;;;3.24;79.07;100011.52;108547;1276;22126;-76
2023/01/08 06:48:54;;;;;;;63.50;56.60;;;;;;;3.22;79.09;100012.56;108534;1275;21929;-78
2023/01/08 06:51:30;;;;;;;60.20;53.60;;;;;;;3.22;78.99;100011.02;108493;1277;23073;-78
2023/01/08 06:54:02;;;;;;;54.40;48.90;;;;;;;3.21;79.03;100006.56;108302;1283;21954;-77
2023/01/08 06:56:37;;;;;;;50.80;45.20;;;;;;;3.21;79.11;100004.50;108229;1280;23053;-76
2023/01/08 06:59:22;;;;;;;46.10;41.10;;;;;;;3.19;79.23;100001.95;108246;1279;23100;-77
2023/01/08 07:01:51;;;;;;;43.30;38.70;;;;;;;3.17;79.28;100003.70;108161;1270;22756;-76
2023/01/08 07:04:21;;;;;;;45.30;40.40;;;;;;;3.16;79.31;100003.88;108136;1280;21938;-77
2023/01/08 07:06:56;;;;;;;48.10;40.50;;;;;;;3.16;79.39;100006.80;108165;1279;22076;-75
2023/01/08 07:09:26;;;;;;;45.20;40.40;;;;;;;3.17;79.42;100006.96;108400;1283;22704;-76
2023/01/08 07:11:59;;;;;;;42.80;37.20;;;;;;;3.19;79.44;100007.63;108575;1277;21950;-77
2023/01/08 07:14:29;;;;;;;49.50;40.30;;;;;;;3.19;79.46;100002.79;108456;1275;23068;-78
2023/01/08 07:16:58;;;;;;;45.30;40.60;;;;;;;3.24;79.60;100000.52;108556;1276;21929;-77
2023/01/08 07:19:28;;;;;;;49.20;43.80;;;;;;;3.26;79.63;100005.11;108626;1273;23510;-77
2023/01/08 07:22:05;;;;;;;52.30;46.60;;;;;;;3.29;79.61;100009.38;108629;1275;21921;-79
2023/01/08 07:24:37;;;;;;;54.30;48.40;;;;;;;3.30;79.60;100010.40;108779;1275;24315;-81
2023/01/08 07:27:12;;;;;;;57.60;51.50;;;;;;;3.31;79.57;100010.73;108576;1275;21921;-81
2023/01/08 07:29:42;;;;;;;58.70;52.50;;;;;;;3.31;79.57;100015.02;108561;1276;22468;-80
2023/01/08 07:32:19;;;;;;;64.50;57.80;;;;;;;3.35;79.70;100014.29;108785;1275;23857;-79
2023/01/08 07:34:53;;;;;;;60.90;54.70;;;;;;;3.40;79.58;100006.15;108493;1274;21924;-81
2023/01/08 07:37:25;;;;;;;57.70;51.80;;;;;;;3.41;79.53;99999.08;108691;1272;23048;-77
2023/01/08 07:39:57;;;;;;;58.90;52.60;;;;;;;3.40;79.55;100003.55;108596;1275;21926;-79
2023/01/08 07:42:27;;;;;;;63.40;57.00;;;;;;;3.39;79.59;100000.47;108579;1275;21939;-78
2023/01/08 07:44:56;;;;;;;58.70;52.80;;;;;;;3.38;79.56;99994.98;108696;1275;21943;-77
2023/01/08 07:47:25;;;;;;;57.20;51.20;;;;;;;3.38;79.60;99988.95;108723;1275;21931;-77
2023/01/08 07:49:54;;;;;;;54.00;48.40;;;;;;;3.38;79.49;99984.83;108592;1275;21924;-77
2023/01/08 07:52:24;;;;;;;49.30;44.30;;;;;;;3.37;79.50;99983.12;108703;1275;21927;-77
2023/01/08 07:54:53;;;;;;;48.70;43.70;;;;;;;3.38;79.69;99981.56;108694;1272;21928;-78
2023/01/08 07:57:29;;;;;;;50.50;45.40;;;;;;;3.38;79.66;99982.24;108563;1275;21937;-78
2023/01/08 08:00:00;;;;;;;50.50;45.10;;;;;;;3.40;79.69;99982.91;108764;1275;22055;-77
2023/01/08 08:02:30;;;;;;;52.40;46.80;;;;;;;3.45;79.83;99979.05;108810;1275;21945;-78
2023/01/08 08:04:59;;;;;;;55.20;49.70;;;;;;;3.50;79.82;99975.02;108703;1275;21924;-77
2023/01/08 08:07:30;;;;;;;55.70;50.10;;;;;;;3.55;79.82;99974.61;108603;1275;22136;-78
2023/01/08 08:10:00;;;;;;;54.00;48.50;;;;;;;3.60;79.96;99977.62;108765;1272;22288;-76
2023/01/08 08:12:31;;;;;;;56.30;50.60;;;;;;;3.65;79.82;99975.13;108551;1277;21923;-78
2023/01/08 08:15:00;;;;;;;50.90;45.80;;;;;;;3.69;79.90;99974.91;108515;1277;22015;-77
2023/01/08 08:17:29;;;;;;;41.90;37.40;;;;;;;3.74;79.93;99971.73;108652;1276;22038;-76
2023/01/08 08:19:59;;;;;;;42.70;38.40;;;;;;;3.77;79.96;99971.52;108585;1272;21934;-77
2023/01/08 08:22:29;;;;;;;41.80;37.50;;;;;;;3.83;80.02;99973.30;108553;1275;22716;-78
2023/01/08 08:24:59;;;;;;;42.30;37.70;;;;;;;3.90;79.96;99965.45;108557;1273;22205;-77
2023/01/08 08:27:29;;;;;;;44.70;40.00;;;;;;;3.96;80.00;99961.56;108562;1276;23055;-78
2023/01/08 08:29:58;;;;;;;42.30;37.40;;;;;;;4.05;80.02;99964.52;108538;1277;23852;-77
2023/01/08 08:32:27;;;;;;;47.50;42.00;;;;;;;4.15;80.15;99967.09;108610;1275;23089;-77
2023/01/08 08:34:57;;;;;;;45.90;40.20;;;;;;;4.28;80.21;99965.83;108592;1277;23708;-78
2023/01/08 08:37:26;;;;;;;44.80;40.20;;;;;;;4.40;80.14;99960.27;108742;1275;23667;-77
2023/01/08 08:39:55;;;;;;;51.50;46.20;;;;;;;4.50;79.99;99958.02;108608;1275;21979;-77
2023/01/08 08:42:25;;;;;;;50.70;45.70;;;;;;;4.57;79.89;99958.91;108647;1275;21947;-76
2023/01/08 08:44:55;;;;;;;59.10;53.00;;;;;;;4.63;79.59;99959.65;108648;1275;23708;-77
2023/01/08 08:47:24;;;;;;;57.50;51.50;;;;;;;4.68;79.62;99951.12;108585;1275;24283;-77
2023/01/08 08:49:54;;;;;;;65.60;58.40;;;;;;;4.73;79.51;99942.21;108542;1275;22698;-77
2023/01/08 08:52:23;;;;;;;55.50;49.30;;;;;;;4.77;79.32;99940.73;108543;1275;21924;-77
2023/01/08 08:54:55;;;;;;;62.80;53.80;;;;;;;4.81;79.29;99935.69;108674;1272;21973;-77
2023/01/08 08:57:26;;;;;;;;;;;;;;;4.84;79.09;99930.11;108501;1274;22619;-77
2023/01/08 08:59:55;;;;;;;52.80;43.60;;;;;;;4.78;79.19;99934.03;108527;1274;23045;-77
2023/01/08 09:02:25;;;;;;;49.30;43.70;;;;;;;4.81;79.29;99935.69;108631;1264;23753;-76
2023/01/08 09:04:54;;;;;;;44.80;39.90;;;;;;;4.87;79.07;99936.41;108514;1275;21931;-77
2023/01/08 09:07:24;;;;;;;48.50;43.50;;;;;;;4.92;78.95;99933.02;108502;1274;21921;-78
2023/01/08 09:09:54;;;;;;;47.60;42.60;;;;;;;4.96;78.93;99930.88;108537;1275;21915;-76
2023/01/08 09:12:23;;;;;;;56.90;50.80;;;;;;;5.01;78.86;99929.91;108592;1275;21923;-76
2023/01/08 09:14:53;;;;;;;52.10;46.60;;;;;;;5.06;78.77;99929.63;108656;1275;22454;-77
2023/01/08 09:17:24;;;;;;;55.30;49.60;;;;;;;5.13;78.80;99932.24;108528;1275;22712;-76
2023/01/08 09:19:54;;;;;;;49.80;44.60;;;;;;;5.22;78.85;99933.93;108603;1275;21941;-76
2023/01/08 09:22:23;;;;;;;52.40;46.90;;;;;;;5.29;78.73;99930.84;108586;1274;21994;-77
2023/01/08 09:24:56;;;;;;;52.90;47.60;;;;;;;5.36;78.64;99925.33;108551;1275;21941;-77
2023/01/08 09:27:25;;;;;;;56.90;51.20;;;;;;;5.44;78.47;99923.09;108190;1280;23064;-76
2023/01/08 09:29:55;;;;;;;78.30;65.60;;;;;;;5.52;78.42;99912.52;108244;1280;21951;-78
2023/01/08 09:32:24;;;;;;;95.90;73.40;;;;;;;5.57;78.20;99905.69;108367;1279;21945;-77
2023/01/08 09:34:53;;;;;;;61.10;54.70;;;;;;;5.59;78.00;99900.45;108045;1285;23215;-76
2023/01/08 09:37:23;;;;;;;53.20;47.50;;;;;;;5.62;77.80;99899.36;107785;1285;22010;-77
2023/01/08 09:39:53;;;;;;;49.60;44.20;;;;;;;5.64;77.74;99899.98;108003;1286;24081;-76
2023/01/08 09:42:32;;;;;;;47.30;41.20;;;;;;;5.68;77.79;99902.45;108042;1285;24283;-76
2023/01/08 09:45:02;;;;;;;46.50;41.60;;;;;;;5.78;77.82;99896.86;108148;1280;23673;-77
2023/01/08 09:47:43;;;;;;;47.30;40.80;;;;;;;5.88;77.60;99892.66;108283;1280;21921;-78
2023/01/08 09:50:14;;;;;;;45.60;40.70;;;;;;;5.94;77.52;99888.02;108148;1280;24277;-78
2023/01/08 09:52:43;;;;;;;50.60;44.90;;;;;;;6.06;77.54;99888.41;108246;1274;22014;-77
2023/01/08 09:55:15;;;;;;;48.00;42.80;;;;;;;6.20;77.47;99892.86;108581;1275;21925;-77
2023/01/08 09:57:46;;;;;;;50.20;45.00;;;;;;;6.32;77.16;99886.66;108522;1275;22026;-77
2023/01/08 10:00:21;;;;;;;48.20;43.20;;;;;;;6.39;76.78;99890.95;108544;1267;21945;-77
2023/01/08 10:02:52;;;;;;;49.20;44.20;;;;;;;6.49;76.72;99890.50;108575;1274;22403;-77
2023/01/08 10:05:27;;;;;;;43.10;38.80;;;;;;;6.57;76.12;99887.16;108467;1274;21944;-77
2023/01/08 10:07:57;;;;;;;43.40;38.80;;;;;;;6.65;76.13;99886.24;108237;1283;22749;-77
2023/01/08 10:10:30;;;;;;;38.00;34.00;;;;;;;6.76;75.86;99886.63;108161;1283;21936;-77
2023/01/08 10:13:00;;;;;;;39.30;35.30;;;;;;;6.83;75.77;99887.45;108135;1282;21959;-78
2023/01/08 10:15:30;;;;;;;37.90;34.00;;;;;;;6.95;75.60;99887.80;108185;1283;22396;-77
2023/01/08 10:18:18;;;;;;;38.00;33.70;;;;;;;7.04;75.28;99885.79;108070;1285;22089;-77
2023/01/08 10:20:48;;;;;;;38.20;34.10;;;;;;;7.13;75.20;99886.03;108072;1285;23808;-76
2023/01/08 10:23:21;;;;;;;36.30;32.60;;;;;;;7.25;74.88;99886.71;107793;1286;21962;-77
2023/01/08 10:26:00;;;;;;;41.20;37.00;;;;;;;7.32;74.65;99885.94;108233;1280;23056;-77
2023/01/08 10:28:36;;;;;;;40.10;35.30;;;;;;;7.44;74.53;99883.14;108356;1277;21936;-77
2023/01/08 10:31:15;;;;;;;38.60;34.50;;;;;;;7.51;73.85;99881.88;108142;1280;22005;-77
2023/01/08 10:33:48;;;;;;;35.40;31.70;;;;;;;7.56;73.87;99878.60;108167;1280;21950;-77
2023/01/08 10:36:23;;;;;;;37.30;33.40;;;;;;;7.65;73.55;99873.62;108396;1275;21921;-76
2023/01/08 10:39:01;;;;;;;37.90;34.00;;;;;;;7.70;73.10;99871.58;108607;1274;21930;-78
2023/01/08 10:41:36;;;;;;;35.70;32.10;;;;;;;7.79;73.04;99859.47;108647;1275;21949;-80
2023/01/08 10:44:15;;;;;;;38.70;34.80;;;;;;;7.84;72.39;99860.52;108502;1274;23825;-78
2023/01/08 10:47:04;;;;;;;37.00;33.00;;;;;;;7.85;72.13;99862.04;108510;1275;21978;-79
2023/01/08 10:49:42;;;;;;;37.90;34.00;;;;;;;7.93;72.02;99856.55;108505;1274;21931;-77
2023/01/08 10:52:31;;;;;;;37.70;33.60;;;;;;;8.00;71.67;99855.98;108646;1274;22098;-78
2023/01/08 10:55:32;;;;;;;35.80;32.20;;;;;;;8.02;71.54;99848.11;108797;1275;22589;-78
2023/01/08 10:58:08;;;;;;;36.90;33.10;;;;;;;8.04;71.50;99835.91;108752;1274;23704;-76
2023/01/08 11:00:39;;;;;;;39.80;35.50;;;;;;;8.17;71.41;99828.16;108637;1274;21927;-77
2023/01/08 11:03:25;;;;;;;41.70;37.30;;;;;;;8.32;71.08;99825.70;108579;1273;21934;-81
2023/01/08 11:05:54;;;;;;;41.70;37.40;;;;;;;8.49;70.64;99823.39;108968;1274;22374;-78
2023/01/08 11:08:23;;;;;;;44.60;40.00;;;;;;;8.61;70.15;99818.60;108700;1274;23666;-77
2023/01/08 11:10:59;;;;;;;41.20;36.20;;;;;;;8.67;69.89;99820.42;108566;1274;21925;-80
2023/01/08 11:13:29;;;;;;;42.50;36.80;;;;;;;8.60;69.28;99818.80;108566;1274;21944;-76
2023/01/08 11:16:11;;;;;;;39.50;35.50;;;;;;;8.52;69.29;99818.41;108647;1275;22795;-77
2023/01/08 11:18:50;;;;;;;42.10;35.40;;;;;;;8.47;69.17;99823.80;108540;1274;23670;-77
2023/01/08 11:21:26;;;;;;;37.30;33.30;;;;;;;8.42;69.04;99821.55;108598;1274;23038;-78
2023/01/08 11:24:11;;;;;;;38.50;34.40;;;;;;;8.45;69.29;99814.52;108684;1274;22408;-76
2023/01/08 11:26:49;;;;;;;42.80;38.50;;;;;;;8.55;69.44;99812.58;108577;1274;23041;-79
2023/01/08 11:29:37;;;;;;;38.50;34.30;;;;;;;8.60;68.86;99809.63;108625;1275;22703;-77
2023/01/08 11:32:26;;;;;;;51.50;43.80;;;;;;;8.65;68.98;99803.20;108651;1274;22018;-77
2023/01/08 11:35:16;;;;;;;42.70;38.10;;;;;;;8.70;69.01;99805.58;108675;1274;22086;-77
2023/01/08 11:37:57;;;;;;;45.70;41.10;;;;;;;8.71;68.66;99803.64;108739;1275;21930;-78
2023/01/08 11:40:57;;;;;;;41.40;37.30;;;;;;;8.69;68.32;99806.66;108513;1274;23621;-77